createdAt,value
2022-10-11T00:01:25.504Z,7.05
2022-10-11T00:03:54.109Z,5.05
2022-10-11T00:06:22.733Z,6.28
2022-10-11T00:08:51.299Z,6.28
2022-10-11T00:11:19.867Z,4.50
2022-10-11T00:13:48.744Z,4.03
2022-10-11T00:16:18.794Z,4.65
2022-10-11T00:18:47.545Z,4.68
2022-10-11T00:21:17.485Z,5.55
2022-10-11T00:23:46.112Z,4.43
2022-10-11T00:26:15.122Z,4.40
2022-10-11T00:28:44.155Z,4.82
2022-10-11T00:31:16.921Z,4.97
2022-10-11T00:33:47.024Z,4.03
2022-10-11T00:36:17.370Z,6.38
2022-10-11T00:38:46.879Z,5.07
2022-10-11T00:41:18.034Z,7.22
2022-10-11T00:43:46.609Z,6.05
2022-10-11T00:46:33.128Z,4.07
2022-10-11T00:49:13.586Z,4.57
2022-10-11T00:51:50.368Z,4.13
2022-10-11T00:54:25.369Z,4.55
2022-10-11T00:57:00.171Z,4.85
2022-10-11T00:59:37.124Z,4.38
2022-10-11T01:02:06.791Z,3.83
2022-10-11T01:04:37.203Z,8.02
2022-10-11T01:07:05.928Z,5.55
2022-10-11T01:09:35.315Z,5.57
2022-10-11T01:12:13.338Z,4.07
2022-10-11T01:15:05.369Z,4.60
2022-10-11T01:17:47.021Z,4.03
2022-10-11T01:20:52.567Z,4.70
2022-10-11T01:24:20.816Z,4.35
2022-10-11T01:27:25.825Z,4.35
2022-10-11T01:30:06.255Z,3.72
2022-10-11T01:32:46.653Z,4.68
2022-10-11T01:35:26.103Z,4.88
2022-10-11T01:38:03.659Z,5.53
2022-10-11T01:40:40.676Z,4.43
2022-10-11T01:43:11.408Z,6.43
2022-10-11T01:45:41.639Z,5.55
2022-10-11T01:48:14.950Z,7.47
2022-10-11T01:50:47.425Z,5.95
2022-10-11T01:53:57.997Z,4.85
2022-10-11T01:56:55.834Z,5.28
2022-10-11T01:59:46.349Z,5.32
2022-10-11T02:02:37.683Z,4.75
2022-10-11T02:05:21.777Z,5.78
2022-10-11T02:08:00.772Z,4.32
2022-10-11T02:10:37.333Z,4.90
2022-10-11T02:13:14.363Z,4.40
2022-10-11T02:15:47.387Z,5.65
2022-10-11T02:18:23.142Z,7.28
2022-10-11T02:20:54.682Z,6.55
2022-10-11T02:23:31.025Z,6.28
2022-10-11T02:26:00.161Z,6.72
2022-10-11T02:28:33.731Z,5.55
2022-10-11T02:31:07.182Z,6.90
2022-10-11T02:33:44.911Z,5.82
2022-10-11T02:36:25.237Z,5.57
2022-10-11T02:38:59.549Z,6.53
2022-10-11T02:41:35.253Z,5.60
2022-10-11T02:44:10.577Z,5.43
2022-10-11T02:46:44.006Z,4.82
2022-10-11T02:49:14.673Z,4.85
2022-10-11T02:51:45.009Z,4.78
2022-10-11T02:54:13.570Z,5.82
2022-10-11T02:56:42.585Z,6.28
2022-10-11T02:59:11.208Z,7.13
2022-10-11T03:01:39.857Z,7.97
2022-10-11T03:04:08.559Z,8.10
2022-10-11T03:06:37.379Z,5.82
2022-10-11T03:09:07.600Z,7.57
2022-10-11T03:11:36.793Z,7.75
2022-10-11T03:14:05.683Z,5.32
2022-10-11T03:16:34.297Z,5.80
2022-10-11T03:19:02.966Z,5.68
2022-10-11T03:21:31.671Z,7.38
2022-10-11T03:24:00.368Z,7.40
2022-10-11T03:26:30.446Z,5.95
2022-10-11T03:28:59.297Z,5.95
2022-10-11T03:31:28.056Z,5.70
2022-10-11T03:33:56.794Z,5.35
2022-10-11T03:36:25.444Z,7.25
2022-10-11T03:38:53.992Z,6.82
2022-10-11T03:41:22.559Z,5.45
2022-10-11T03:43:52.485Z,7.47
2022-10-11T03:46:21.026Z,5.63
2022-10-11T03:48:50.711Z,5.85
2022-10-11T03:51:19.234Z,4.75
2022-10-11T03:53:47.849Z,5.45
2022-10-11T03:56:16.641Z,5.10
2022-10-11T03:58:45.429Z,6.13
2022-10-11T04:01:15.458Z,5.20
2022-10-11T04:03:44.193Z,5.43
2022-10-11T04:06:12.855Z,5.90
2022-10-11T04:08:41.462Z,10.15
2022-10-11T04:11:10.049Z,5.22
2022-10-11T04:13:38.613Z,7.35
2022-10-11T04:16:08.851Z,4.75
2022-10-11T04:18:38.969Z,5.20
2022-10-11T04:21:07.861Z,5.63
2022-10-11T04:23:36.442Z,8.18
2022-10-11T04:26:07.717Z,5.90
2022-10-11T04:28:37.070Z,6.32
2022-10-11T04:31:07.905Z,7.40
2022-10-11T04:33:36.523Z,7.93
2022-10-11T04:36:08.083Z,8.23
2022-10-11T04:38:37.176Z,10.80
2022-10-11T04:41:10.726Z,6.95
2022-10-11T04:43:39.986Z,7.78
2022-10-11T04:46:10.325Z,7.53
2022-10-11T04:48:39.466Z,6.22
2022-10-11T04:51:09.548Z,6.72
2022-10-11T04:53:38.267Z,5.78
2022-10-11T04:56:11.458Z,5.90
2022-10-11T04:58:41.968Z,7.47
2022-10-11T05:01:11.531Z,13.43
2022-10-11T05:03:40.090Z,10.13
2022-10-11T05:06:10.486Z,7.93
2022-10-11T05:08:40.560Z,8.70
2022-10-11T05:11:15.679Z,9.45
2022-10-11T05:13:45.791Z,9.65
2022-10-11T05:16:16.744Z,8.10
2022-10-11T05:18:46.017Z,10.30
2022-10-11T05:21:21.301Z,8.20
2022-10-11T05:23:51.612Z,8.25
2022-10-11T05:26:21.714Z,9.75
2022-10-11T05:28:50.405Z,9.00
2022-10-11T05:31:19.641Z,6.70
2022-10-11T05:33:48.618Z,9.95
2022-10-11T05:36:19.206Z,9.27
2022-10-11T05:38:47.786Z,9.07
2022-10-11T05:41:17.907Z,9.55
2022-10-11T05:43:46.741Z,5.57
2022-10-11T05:46:15.401Z,8.43
2022-10-11T05:48:43.961Z,9.07
2022-10-11T05:51:13.618Z,26.38
2022-10-11T05:53:43.583Z,11.18
2022-10-11T05:56:25.081Z,14.90
2022-10-11T05:58:57.528Z,12.18
2022-10-11T06:01:29.222Z,11.75
2022-10-11T06:03:57.855Z,9.55
2022-10-11T06:06:26.543Z,10.00
2022-10-11T06:08:57.024Z,9.02
2022-10-11T06:11:29.283Z,7.97
2022-10-11T06:13:59.262Z,6.30
2022-10-11T06:16:28.706Z,6.05
2022-10-11T06:18:58.371Z,7.20
2022-10-11T06:21:27.327Z,8.70
2022-10-11T06:24:01.353Z,8.50
2022-10-11T06:26:31.144Z,7.00
2022-10-11T06:29:00.112Z,6.20
2022-10-11T06:31:28.796Z,7.53
2022-10-11T06:33:57.365Z,10.43
2022-10-11T06:36:26.384Z,7.78
2022-10-11T06:38:56.903Z,8.63
2022-10-11T06:41:28.285Z,7.07
2022-10-11T06:43:57.522Z,7.25
2022-10-11T06:46:29.066Z,5.93
2022-10-11T06:48:57.631Z,5.60
2022-10-11T06:51:28.713Z,4.93
2022-10-11T06:54:01.922Z,6.63
2022-10-11T06:56:32.155Z,5.68
2022-10-11T06:59:01.087Z,5.50
2022-10-11T07:01:29.827Z,6.25
2022-10-11T07:04:01.439Z,8.60
2022-10-11T07:06:31.651Z,6.53
2022-10-11T07:09:02.752Z,9.15
2022-10-11T07:11:31.507Z,8.77
2022-10-11T07:14:04.333Z,9.40
2022-10-11T07:16:32.907Z,13.55
2022-10-11T07:19:03.839Z,8.02
2022-10-11T07:21:35.584Z,9.00
2022-10-11T07:24:06.511Z,7.47
2022-10-11T07:26:38.570Z,5.47
2022-10-11T07:29:10.353Z,5.40
2022-10-11T07:31:41.900Z,6.82
2022-10-11T07:34:11.634Z,6.57
2022-10-11T07:36:40.344Z,7.05
2022-10-11T07:39:10.499Z,8.48
2022-10-11T07:41:45.470Z,7.40
2022-10-11T07:44:14.835Z,10.52
2022-10-11T07:46:43.377Z,11.00
2022-10-11T07:49:11.967Z,8.00
2022-10-11T07:51:40.593Z,6.53
2022-10-11T07:54:10.525Z,6.15
2022-10-11T07:56:40.206Z,7.30
2022-10-11T07:59:08.833Z,5.80
2022-10-11T08:01:37.440Z,4.90
2022-10-11T08:04:06.590Z,4.35
2022-10-11T08:06:36.657Z,4.90
2022-10-11T08:09:05.752Z,5.03
2022-10-11T08:11:38.379Z,5.07
2022-10-11T08:14:11.369Z,6.53
2022-10-11T08:16:41.024Z,4.57
2022-10-11T08:19:09.599Z,6.13
2022-10-11T08:21:38.396Z,4.15
2022-10-11T08:24:08.871Z,7.03
2022-10-11T08:26:38.902Z,5.03
2022-10-11T08:29:07.998Z,4.05
2022-10-11T08:31:36.975Z,4.75
2022-10-11T08:34:05.644Z,3.67
2022-10-11T08:36:34.473Z,4.07
2022-10-11T08:39:03.201Z,4.50
2022-10-11T08:41:42.919Z,7.00
2022-10-11T08:45:05.517Z,6.32
2022-10-11T08:47:34.208Z,4.07
2022-10-11T08:50:03.644Z,5.82
2022-10-11T08:52:44.432Z,4.43
2022-10-11T08:55:24.256Z,4.40
2022-10-11T08:57:57.705Z,5.50
2022-10-11T09:00:29.848Z,4.55
2022-10-11T09:03:08.963Z,6.05
2022-10-11T09:05:56.486Z,5.35
2022-10-11T09:08:36.172Z,6.95
2022-10-11T09:11:16.753Z,6.57
2022-10-11T09:14:21.664Z,9.32
2022-10-11T09:17:04.535Z,9.15
2022-10-11T09:20:19.267Z,5.65
2022-10-11T09:22:59.210Z,5.97
2022-10-11T09:25:36.438Z,5.30
2022-10-11T09:28:24.011Z,4.30
2022-10-11T09:30:58.943Z,4.40
2022-10-11T09:33:36.500Z,4.65
2022-10-11T09:36:21.701Z,6.30
2022-10-11T09:39:06.322Z,4.82
2022-10-11T09:41:42.731Z,6.95
2022-10-11T09:44:20.961Z,5.88
2022-10-11T09:46:54.144Z,5.68
2022-10-11T09:49:30.109Z,7.13
2022-10-11T09:52:03.169Z,9.00
2022-10-11T09:54:45.557Z,5.78
2022-10-11T09:57:27.554Z,5.45
2022-10-11T10:00:03.247Z,5.90
2022-10-11T10:02:42.729Z,5.45
2022-10-11T10:05:19.930Z,5.00
2022-10-11T10:08:24.916Z,9.20
2022-10-11T10:11:03.740Z,6.82
2022-10-11T10:13:46.288Z,11.55
2022-10-11T10:16:27.013Z,11.25
2022-10-11T10:19:00.969Z,8.10
2022-10-11T10:21:33.845Z,8.57
2022-10-11T10:24:08.708Z,10.68
2022-10-11T10:26:37.335Z,9.82
2022-10-11T10:29:20.208Z,11.88
2022-10-11T10:35:03.369Z,10.27
2022-10-11T10:37:39.991Z,13.60
2022-10-11T10:40:17.248Z,9.25
2022-10-11T10:42:45.858Z,8.18
2022-10-11T10:45:21.515Z,12.60
2022-10-11T10:48:19.639Z,13.07
2022-10-11T10:50:57.600Z,9.10
2022-10-11T10:53:35.544Z,7.95
2022-10-11T10:56:12.104Z,9.73
2022-10-11T10:59:15.293Z,9.60
2022-10-11T11:01:57.705Z,11.27
2022-10-11T11:04:34.632Z,12.15
2022-10-11T11:07:21.432Z,9.52
2022-10-11T11:10:02.330Z,10.43
2022-10-11T11:12:46.921Z,10.55
2022-10-11T11:15:32.012Z,9.77
2022-10-11T11:18:25.940Z,11.43
2022-10-11T11:21:13.017Z,10.57
2022-10-11T11:23:53.681Z,12.70
2022-10-11T11:26:37.834Z,13.18
2022-10-11T11:29:35.539Z,15.18
2022-10-11T11:32:19.142Z,12.27
2022-10-11T11:34:55.653Z,16.30
2022-10-11T11:37:33.403Z,16.65
2022-10-11T11:40:14.878Z,16.88
2022-10-11T11:42:49.871Z,14.73
2022-10-11T11:45:24.770Z,8.43
2022-10-11T11:48:02.027Z,8.52
2022-10-11T11:50:40.075Z,9.40
2022-10-11T11:53:16.575Z,9.32
2022-10-11T11:55:57.012Z,9.52
2022-10-11T11:58:38.745Z,8.35
2022-10-11T12:01:26.514Z,10.27
2022-10-11T12:04:04.364Z,10.10
2022-10-11T12:06:37.889Z,10.75
2022-10-11T12:09:22.890Z,11.60
2022-10-11T12:11:57.628Z,7.65
2022-10-11T12:14:37.202Z,9.45
2022-10-11T12:17:19.973Z,7.43
2022-10-11T12:20:25.148Z,6.97
2022-10-11T12:23:00.280Z,6.07
2022-10-11T12:25:45.164Z,7.43
2022-10-11T12:29:03.847Z,8.52
2022-10-11T12:31:35.643Z,6.30
2022-10-11T12:37:51.251Z,7.30
2022-10-11T12:40:41.861Z,6.53
2022-10-11T12:43:37.063Z,8.80
2022-10-11T12:47:04.938Z,7.13
2022-10-11T12:49:58.610Z,10.95
2022-10-11T12:52:40.410Z,5.68
2022-10-11T12:55:31.321Z,10.35
2022-10-11T12:58:30.715Z,6.75
2022-10-11T13:01:23.484Z,7.13
2022-10-11T13:04:04.200Z,8.82
2022-10-11T13:06:39.428Z,10.00
2022-10-11T13:09:24.084Z,7.05
2022-10-11T13:11:58.463Z,7.22
2022-10-11T13:14:29.924Z,6.47
2022-10-11T13:17:08.597Z,7.63
2022-10-11T13:22:24.631Z,5.70
2022-10-11T13:24:57.996Z,5.43
2022-10-11T13:27:28.716Z,5.20
2022-10-11T13:30:02.604Z,6.65
2022-10-11T13:32:35.215Z,7.90
2022-10-11T13:35:16.482Z,5.57
2022-10-11T13:37:49.830Z,6.38
2022-10-11T13:40:22.107Z,6.85
2022-10-11T13:42:53.994Z,8.27
2022-10-11T13:45:25.406Z,8.52
2022-10-11T13:47:56.183Z,6.75
2022-10-11T13:50:32.022Z,7.13
2022-10-11T13:53:03.689Z,6.88
2022-10-11T13:55:35.778Z,8.93
2022-10-11T13:58:18.394Z,7.88
2022-10-11T14:00:57.287Z,8.70
2022-10-11T14:03:38.560Z,6.57
2022-10-11T14:06:09.514Z,8.10
2022-10-11T14:08:44.757Z,9.10
2022-10-11T14:11:14.976Z,10.60
2022-10-11T14:13:46.199Z,10.27
2022-10-11T14:16:31.005Z,9.85
2022-10-11T14:19:12.187Z,9.43
2022-10-11T14:21:53.983Z,10.18
2022-10-11T14:24:23.857Z,9.00
2022-10-11T14:26:55.986Z,7.07
2022-10-11T14:29:29.253Z,8.95
2022-10-11T14:32:04.076Z,6.80
2022-10-11T14:34:33.899Z,7.05
2022-10-11T14:37:04.086Z,7.50
2022-10-11T14:39:34.260Z,7.20
2022-10-11T14:42:02.863Z,8.90
2022-10-11T14:44:31.487Z,6.63
2022-10-11T14:47:00.425Z,10.80
2022-10-11T14:49:31.676Z,7.88
2022-10-11T14:52:00.748Z,7.50
2022-10-11T14:54:32.803Z,7.00
2022-10-11T14:57:04.529Z,6.07
2022-10-11T14:59:37.855Z,8.00
2022-10-11T15:02:09.510Z,7.18
2022-10-11T15:04:38.125Z,10.50
2022-10-11T15:07:06.822Z,5.72
2022-10-11T15:09:36.780Z,6.47
2022-10-11T15:12:06.208Z,5.32
2022-10-11T15:14:34.829Z,8.65
2022-10-11T15:17:03.490Z,5.60
2022-10-11T15:19:32.083Z,5.18
2022-10-11T15:22:02.815Z,7.88
2022-10-11T15:24:31.447Z,5.55
2022-10-11T15:27:01.529Z,5.78
2022-10-11T15:29:30.395Z,6.32
2022-10-11T15:31:58.926Z,5.38
2022-10-11T15:34:27.613Z,7.50
2022-10-11T15:36:56.223Z,6.60
2022-10-11T15:39:28.736Z,6.40
2022-10-11T15:42:00.006Z,5.05
2022-10-11T15:44:28.681Z,8.60
2022-10-11T15:46:57.728Z,9.63
2022-10-11T15:49:26.292Z,6.32
2022-10-11T15:51:54.908Z,8.15
2022-10-11T15:54:23.482Z,5.85
2022-10-11T15:56:52.396Z,9.20
2022-10-11T15:59:22.417Z,6.90
2022-10-11T16:01:51.986Z,7.47
2022-10-11T16:04:20.699Z,7.13
2022-10-11T16:06:49.318Z,6.00
2022-10-11T16:09:18.090Z,10.05
2022-10-11T16:11:46.679Z,7.70
2022-10-11T16:14:15.321Z,7.38
2022-10-11T16:16:45.308Z,9.95
2022-10-11T16:19:13.989Z,6.60
2022-10-11T16:21:42.800Z,8.55
2022-10-11T16:24:11.490Z,8.55
2022-10-11T16:26:40.116Z,6.10
2022-10-11T16:29:08.719Z,7.18
2022-10-11T16:31:37.303Z,5.95
2022-10-11T16:34:07.342Z,7.28
2022-10-11T16:36:40.200Z,7.43
2022-10-11T16:39:14.324Z,6.40
2022-10-11T16:41:43.535Z,6.60
2022-10-11T16:44:16.752Z,7.55
2022-10-11T16:46:48.304Z,6.82
2022-10-11T16:49:20.264Z,7.38
2022-10-11T16:51:48.957Z,6.90
2022-10-11T16:54:20.579Z,8.13
2022-10-11T16:56:49.650Z,10.88
2022-10-11T16:59:18.851Z,6.45
2022-10-11T17:01:47.897Z,9.75
2022-10-11T17:04:17.944Z,10.07
2022-10-11T17:06:46.728Z,6.78
2022-10-11T17:09:16.046Z,7.35
2022-10-11T17:11:45.301Z,9.52
2022-10-11T17:14:14.577Z,7.85
2022-10-11T17:16:43.319Z,7.57
2022-10-11T17:19:13.904Z,10.07
2022-10-11T17:21:44.263Z,8.48
2022-10-11T17:24:12.836Z,8.98
2022-10-11T17:26:41.489Z,7.93
2022-10-11T17:29:16.717Z,7.97
2022-10-11T17:31:49.170Z,6.72
2022-10-11T17:34:18.894Z,7.47
2022-10-11T17:36:49.150Z,8.52
2022-10-11T17:39:20.841Z,9.07
2022-10-11T17:41:50.464Z,10.25
2022-10-11T17:44:20.092Z,8.85
2022-10-11T17:46:49.312Z,7.00
2022-10-11T17:49:18.282Z,7.00
2022-10-11T17:51:48.511Z,8.45
2022-10-11T17:54:17.102Z,7.93
2022-10-11T17:56:45.678Z,11.88
2022-10-11T17:59:18.958Z,7.00
2022-10-11T18:01:47.795Z,7.28
2022-10-11T18:04:17.830Z,8.88
2022-10-11T18:06:50.896Z,8.40
2022-10-11T18:09:20.414Z,8.38
2022-10-11T18:11:49.923Z,9.80
2022-10-11T18:14:18.903Z,6.88
2022-10-11T18:16:47.608Z,10.63
2022-10-11T18:19:16.444Z,7.50
2022-10-11T18:21:45.118Z,8.88
2022-10-11T18:24:17.726Z,9.93
2022-10-11T18:26:48.759Z,7.82
2022-10-11T18:29:17.540Z,8.65
2022-10-11T18:31:46.371Z,7.38
2022-10-11T18:34:15.966Z,7.25
2022-10-11T18:36:44.681Z,9.10
2022-10-11T18:39:16.421Z,7.35
2022-10-11T18:41:45.595Z,10.10
2022-10-11T18:44:16.771Z,6.85
2022-10-11T18:46:46.262Z,13.32
2022-10-11T18:49:15.533Z,8.05
2022-10-11T18:51:46.303Z,10.02
2022-10-11T18:54:20.248Z,7.25
2022-10-11T18:56:50.459Z,8.93
2022-10-11T18:59:20.303Z,6.50
2022-10-11T19:01:52.209Z,10.02
2022-10-11T19:04:22.400Z,6.15
2022-10-11T19:06:53.397Z,7.63
2022-10-11T19:09:26.475Z,9.07
2022-10-11T19:11:57.024Z,10.50
2022-10-11T19:14:28.815Z,6.05
2022-10-11T19:16:58.849Z,7.97
2022-10-11T19:19:30.803Z,5.60
2022-10-11T19:22:00.031Z,9.10
2022-10-11T19:24:32.507Z,9.07
2022-10-11T19:27:03.073Z,8.32
2022-10-11T19:29:33.189Z,7.53
2022-10-11T19:32:04.396Z,6.28
2022-10-11T19:34:33.101Z,9.23
2022-10-11T19:37:03.405Z,9.02
2022-10-11T19:39:33.648Z,6.70
2022-10-11T19:42:02.624Z,7.70
2022-10-11T19:44:34.434Z,10.65
2022-10-11T19:47:06.151Z,6.00
2022-10-11T19:49:34.912Z,5.43
2022-10-11T19:52:03.527Z,6.65
2022-10-11T19:54:33.665Z,8.07
2022-10-11T19:57:02.285Z,7.38
2022-10-11T19:59:31.011Z,6.88
2022-10-11T20:01:59.625Z,6.53
2022-10-11T20:04:51.106Z,6.43
2022-10-11T20:07:17.780Z,6.38
2022-10-11T20:09:47.741Z,20.02
2022-10-11T20:12:16.280Z,24.02
2022-10-11T20:14:44.860Z,10.55
2022-10-11T20:17:13.740Z,9.40
2022-10-11T20:19:42.394Z,8.60
2022-10-11T20:22:11.119Z,12.43
2022-10-11T20:24:39.679Z,6.65
2022-10-11T20:27:09.984Z,8.32
2022-10-11T20:29:38.564Z,7.80
2022-10-11T20:32:07.488Z,8.25
2022-10-11T20:34:39.495Z,13.57
2022-10-11T20:37:08.118Z,12.40
2022-10-11T20:39:36.719Z,13.10
2022-10-11T20:42:05.546Z,13.38
2022-10-11T20:44:35.528Z,13.93
2022-10-11T20:47:04.430Z,15.80
2022-10-11T20:49:33.102Z,16.08
2022-10-11T20:52:02.062Z,10.50
2022-10-11T20:54:31.830Z,13.70
2022-10-11T20:57:00.397Z,11.68
2022-10-11T20:59:29.376Z,12.68
2022-10-11T21:01:59.300Z,22.23
2022-10-11T21:04:27.909Z,13.55
2022-10-11T21:06:56.482Z,16.48
2022-10-11T21:09:25.284Z,15.93
2022-10-11T21:11:54.022Z,12.48
2022-10-11T21:14:22.849Z,12.05
2022-10-11T21:16:51.415Z,11.65
2022-10-11T21:19:21.373Z,12.68
2022-10-11T21:21:53.686Z,9.75
2022-10-11T21:24:23.267Z,12.35
2022-10-11T21:26:52.313Z,12.27
2022-10-11T21:29:22.563Z,6.88
2022-10-11T21:31:51.112Z,9.70
2022-10-11T21:34:21.037Z,5.88
2022-10-11T21:36:49.731Z,6.63
2022-10-11T21:39:18.278Z,9.23
2022-10-11T21:41:46.984Z,7.97
2022-10-11T21:44:15.876Z,6.90
2022-10-11T21:49:34.305Z,8.07
2022-10-11T21:52:03.138Z,8.65
2022-10-11T21:54:31.712Z,10.88
2022-10-11T21:57:00.250Z,9.43
2022-10-11T21:59:28.935Z,9.27
2022-10-11T22:02:01.665Z,10.52
2022-10-11T22:04:30.736Z,9.90
2022-10-11T22:07:00.776Z,9.05
2022-10-11T22:09:29.994Z,8.65
2022-10-11T22:11:58.957Z,7.22
2022-10-11T22:14:28.015Z,7.13
2022-10-11T22:16:56.833Z,10.10
2022-10-11T22:19:25.635Z,11.88
2022-10-11T22:21:54.227Z,8.10
2022-10-11T22:24:24.328Z,9.90
2022-10-11T22:26:52.874Z,6.40
2022-10-11T22:29:21.384Z,6.53
2022-10-11T22:31:50.011Z,5.32
2022-10-11T22:34:18.645Z,7.32
2022-10-11T22:36:47.672Z,6.45
2022-10-11T22:39:16.187Z,5.55
2022-10-11T22:41:46.116Z,7.75
2022-10-11T22:44:15.169Z,4.13
2022-10-11T22:46:43.751Z,4.90
2022-10-11T22:49:12.787Z,5.90
2022-10-11T22:51:41.319Z,6.75
2022-10-11T22:54:09.961Z,9.30
2022-10-11T22:56:38.463Z,7.60
2022-10-11T22:59:08.566Z,7.07
2022-10-11T23:01:37.162Z,7.18
2022-10-11T23:04:06.202Z,9.30
2022-10-11T23:06:34.735Z,7.45
2022-10-11T23:09:03.497Z,6.45
2022-10-11T23:11:32.116Z,7.65
2022-10-11T23:14:00.676Z,7.70
2022-10-11T23:16:30.620Z,9.30
2022-10-11T23:18:59.228Z,7.68
2022-10-11T23:21:27.849Z,8.38
2022-10-11T23:23:56.835Z,10.07
2022-10-11T23:26:25.387Z,9.32
2022-10-11T23:28:56.190Z,9.35
2022-10-11T23:31:24.774Z,10.73
2022-10-11T23:33:55.889Z,12.88
2022-10-11T23:36:26.814Z,10.13
2022-10-11T23:38:57.934Z,10.43
2022-10-11T23:41:29.466Z,8.70
2022-10-11T23:43:59.246Z,7.78
2022-10-11T23:46:27.759Z,9.13
2022-10-11T23:48:57.762Z,7.75
2022-10-11T23:51:26.604Z,7.10
2022-10-11T23:53:55.250Z,7.90
2022-10-11T23:56:23.879Z,7.80
2022-10-11T23:58:52.497Z,7.65
